PIMOHWEATHER Station Historical Data
Daily Summary for February 18, 2020 Units:  Metric    English   Both
Daily Weekly Monthly Yearly
  High: Low: Average:
Temperature: 32.0 °C 25.0 °C 28.1 °C
Dew Point: 23.0 °C 20.0 °C 21.6 °C
Humidity: 77% 58% 69%
Wind Speed: 36km/h 5km/h 18km/h
Wind Gust: 44km/h - -
Wind- - ENE
Pressure: 1016.6 hPa 1012.9 hPa -
Precipitation: 0.00 mm    
 
 
Tabular Data for February 18, 2020
Time Temperature Dew Point Pressure Wind Wind Speed Wind Gust Humidity Rainfall Rate (Hourly) solar
03:24 26.0 °C 21.0 °C 1014.2 hPa North 19 km/h 24 km/h 76% 0.00 mm 0.00 W/m2
03:29 26.0 °C 21.0 °C 1014.2 hPa North 15 km/h 20 km/h 76% 0.00 mm 0.00 W/m2
03:34 26.0 °C 21.0 °C 1014.2 hPa North 17 km/h 20 km/h 76% 0.00 mm 0.00 W/m2
03:39 26.0 °C 21.0 °C 1014.2 hPa North 16 km/h 20 km/h 76% 0.00 mm 0.00 W/m2
03:44 26.0 °C 21.0 °C 1014.2 hPa North 14 km/h 20 km/h 77% 0.00 mm 0.00 W/m2
03:49 26.0 °C 21.0 °C 1014.6 hPa North 21 km/h 24 km/h 76% 0.00 mm 0.00 W/m2
03:54 26.0 °C 21.0 °C 1014.2 hPa North 13 km/h 24 km/h 77% 0.00 mm 0.00 W/m2
03:59 26.0 °C 22.0 °C 1014.2 hPa North 14 km/h 20 km/h 77% 0.00 mm 0.00 W/m2
04:04 26.0 °C 22.0 °C 1014.6 hPa NNE 13 km/h 16 km/h 77% 0.00 mm 0.00 W/m2
04:09 26.0 °C 22.0 °C 1014.6 hPa NNE 16 km/h 20 km/h 77% 0.00 mm 0.00 W/m2
04:14 26.0 °C 22.0 °C 1014.6 hPa NNE 13 km/h 16 km/h 77% 0.00 mm 0.00 W/m2
04:19 26.0 °C 22.0 °C 1014.6 hPa North 15 km/h 16 km/h 77% 0.00 mm 0.00 W/m2
04:24 26.0 °C 22.0 °C 1014.6 hPa NNE 15 km/h 20 km/h 77% 0.00 mm 0.00 W/m2
04:29 26.0 °C 21.0 °C 1014.6 hPa NNE 15 km/h 16 km/h 76% 0.00 mm 0.00 W/m2
04:34 26.0 °C 21.0 °C 1014.6 hPa NNE 17 km/h 20 km/h 76% 0.00 mm 0.00 W/m2
04:39 26.0 °C 21.0 °C 1014.6 hPa NNE 15 km/h 16 km/h 76% 0.00 mm 0.00 W/m2
04:44 26.0 °C 21.0 °C 1014.6 hPa NNE 12 km/h 16 km/h 76% 0.00 mm 0.00 W/m2
04:45 26.0 °C 21.0 °C 1014.6 hPa NNE 7 km/h 16 km/h 76% 0.00 mm 0.00 W/m2
06:24 26.0 °C 21.0 °C 1015.2 hPa North 15 km/h 20 km/h 77% 0.00 mm 4.66 W/m2
06:29 26.0 °C 21.0 °C 1015.2 hPa NNE 15 km/h 20 km/h 77% 0.00 mm 8.67 W/m2
06:34 26.0 °C 21.0 °C 1015.2 hPa NNE 17 km/h 24 km/h 77% 0.00 mm 13.67 W/m2
06:39 26.0 °C 21.0 °C 1015.2 hPa North 16 km/h 20 km/h 77% 0.00 mm 20.34 W/m2
06:44 26.0 °C 21.0 °C 1015.2 hPa North 24 km/h 28 km/h 77% 0.00 mm 24.69 W/m2
06:49 26.0 °C 21.0 °C 1015.6 hPa North 19 km/h 24 km/h 76% 0.00 mm 28.31 W/m2
06:54 26.0 °C 21.0 °C 1015.6 hPa North 18 km/h 24 km/h 76% 0.00 mm 33.72 W/m2
06:59 26.0 °C 21.0 °C 1015.9 hPa North 13 km/h 16 km/h 76% 0.00 mm 37.78 W/m2
07:04 26.0 °C 21.0 °C 1015.9 hPa North 9 km/h 12 km/h 76% 0.00 mm 38.39 W/m2
07:09 26.0 °C 21.0 °C 1015.9 hPa NNW 17 km/h 24 km/h 76% 0.00 mm 44.84 W/m2
07:14 26.0 °C 21.0 °C 1015.9 hPa NNW 15 km/h 24 km/h 76% 0.00 mm 45.02 W/m2
07:19 26.0 °C 21.0 °C 1015.9 hPa NNW 13 km/h 16 km/h 76% 0.00 mm 51.70 W/m2
07:24 26.0 °C 22.0 °C 1016.3 hPa North 19 km/h 24 km/h 75% 0.00 mm 56.41 W/m2
07:29 27.0 °C 22.0 °C 1016.3 hPa NNE 10 km/h 12 km/h 75% 0.00 mm 64.82 W/m2
07:34 27.0 °C 22.0 °C 1016.3 hPa NNE 12 km/h 12 km/h 73% 0.00 mm 76.50 W/m2
07:39 27.0 °C 22.0 °C 1016.3 hPa North 13 km/h 16 km/h 73% 0.00 mm 91.28 W/m2
07:44 27.0 °C 21.0 °C 1016.3 hPa North 18 km/h 24 km/h 73% 0.00 mm 124.80 W/m2
07:49 27.0 °C 22.0 °C 1016.6 hPa North 15 km/h 20 km/h 73% 0.00 mm 131.80 W/m2
07:54 27.0 °C 22.0 °C 1016.6 hPa North 18 km/h 20 km/h 73% 0.00 mm 112.18 W/m2
07:59 27.0 °C 22.0 °C 1016.3 hPa North 19 km/h 20 km/h 73% 0.00 mm 120.20 W/m2
08:04 27.0 °C 22.0 °C 1016.3 hPa North 19 km/h 20 km/h 72% 0.00 mm 130.87 W/m2
08:09 27.0 °C 22.0 °C 1016.3 hPa North 15 km/h 16 km/h 72% 0.00 mm 145.89 W/m2
08:14 28.0 °C 22.0 °C 1016.6 hPa North 13 km/h 16 km/h 72% 0.00 mm 152.87 W/m2
08:19 28.0 °C 22.0 °C 1016.6 hPa NNE 11 km/h 12 km/h 70% 0.00 mm 161.43 W/m2
08:24 28.0 °C 22.0 °C 1016.6 hPa NNW 15 km/h 16 km/h 71% 0.00 mm 172.71 W/m2
08:29 28.0 °C 22.0 °C 1016.6 hPa North 17 km/h 20 km/h 71% 0.00 mm 182.18 W/m2
08:34 28.0 °C 22.0 °C 1016.3 hPa North 12 km/h 12 km/h 70% 0.00 mm 196.20 W/m2
08:39 28.0 °C 22.0 °C 1016.6 hPa North 12 km/h 16 km/h 70% 0.00 mm 213.86 W/m2
08:44 29.0 °C 22.0 °C 1016.6 hPa NE 9 km/h 12 km/h 69% 0.00 mm 229.67 W/m2
08:49 29.0 °C 22.0 °C 1016.6 hPa North 14 km/h 16 km/h 68% 0.00 mm 231.75 W/m2
08:54 28.0 °C 22.0 °C 1016.6 hPa NNW 15 km/h 20 km/h 69% 0.00 mm 297.15 W/m2
08:59 29.0 °C 22.0 °C 1016.6 hPa NE 13 km/h 16 km/h 69% 0.00 mm 315.79 W/m2
09:04 29.0 °C 22.0 °C 1016.6 hPa NNE 11 km/h 16 km/h 69% 0.00 mm 197.91 W/m2
09:09 28.0 °C 22.0 °C 1016.6 hPa North 10 km/h 16 km/h 70% 0.00 mm 226.49 W/m2
09:14 28.0 °C 22.0 °C 1016.6 hPa North 10 km/h 12 km/h 69% 0.00 mm 323.67 W/m2
09:19 28.0 °C 22.0 °C 1016.6 hPa North 12 km/h 16 km/h 70% 0.00 mm 138.21 W/m2
09:24 28.0 °C 22.0 °C 1016.6 hPa NNE 21 km/h 24 km/h 70% 0.00 mm 175.23 W/m2
09:29 29.0 °C 22.0 °C 1016.6 hPa NNE 13 km/h 24 km/h 69% 0.00 mm 342.59 W/m2
09:34 29.0 °C 22.0 °C 1016.6 hPa NE 21 km/h 28 km/h 68% 0.00 mm 330.18 W/m2
09:39 29.0 °C 22.0 °C 1016.6 hPa NNW 13 km/h 28 km/h 67% 0.00 mm 353.74 W/m2
09:44 29.0 °C 22.0 °C 1016.6 hPa NNE 19 km/h 24 km/h 66% 0.00 mm 384.11 W/m2
09:49 29.0 °C 22.0 °C 1016.6 hPa NNE 15 km/h 24 km/h 66% 0.00 mm 388.80 W/m2
09:54 30.0 °C 22.0 °C 1016.6 hPa NE 15 km/h 20 km/h 65% 0.00 mm 391.47 W/m2
09:59 31.0 °C 23.0 °C 1016.6 hPa NNE 15 km/h 20 km/h 63% 0.00 mm 461.81 W/m2
10:04 31.0 °C 23.0 °C 1016.3 hPa NNE 17 km/h 20 km/h 64% 0.00 mm 498.78 W/m2
10:09 30.0 °C 23.0 °C 1016.3 hPa North 19 km/h 24 km/h 66% 0.00 mm 464.58 W/m2
10:14 30.0 °C 23.0 °C 1016.3 hPa NNW 24 km/h 28 km/h 67% 0.00 mm 455.94 W/m2
10:19 30.0 °C 23.0 °C 1016.3 hPa North 17 km/h 24 km/h 67% 0.00 mm 463.99 W/m2
10:24 30.0 °C 23.0 °C 1016.3 hPa North 19 km/h 24 km/h 66% 0.00 mm 508.60 W/m2
10:29 30.0 °C 23.0 °C 1016.3 hPa North 26 km/h 32 km/h 66% 0.00 mm 524.96 W/m2
10:34 29.0 °C 22.0 °C 1015.9 hPa North 30 km/h 40 km/h 67% 0.00 mm 356.85 W/m2
10:39 29.0 °C 22.0 °C 1015.9 hPa NNE 20 km/h 28 km/h 67% 0.00 mm 382.12 W/m2
10:44 29.0 °C 22.0 °C 1015.9 hPa North 19 km/h 24 km/h 67% 0.00 mm 458.61 W/m2
10:49 30.0 °C 23.0 °C 1015.6 hPa NNW 18 km/h 20 km/h 67% 0.00 mm 485.45 W/m2
10:54 30.0 °C 23.0 °C 1015.6 hPa North 20 km/h 28 km/h 65% 0.00 mm 494.06 W/m2
10:59 30.0 °C 23.0 °C 1015.6 hPa North 19 km/h 28 km/h 66% 0.00 mm 569.91 W/m2
11:04 30.0 °C 23.0 °C 1015.6 hPa North 26 km/h 28 km/h 67% 0.00 mm 303.81 W/m2
11:09 29.0 °C 23.0 °C 1015.6 hPa North 19 km/h 28 km/h 67% 0.00 mm 522.84 W/m2
11:14 29.0 °C 22.0 °C 1015.6 hPa North 21 km/h 28 km/h 67% 0.00 mm 441.82 W/m2
11:19 30.0 °C 23.0 °C 1015.2 hPa NNE 22 km/h 28 km/h 66% 0.00 mm 495.80 W/m2
11:24 30.0 °C 23.0 °C 1015.6 hPa North 26 km/h 28 km/h 65% 0.00 mm 546.67 W/m2
11:29 31.0 °C 23.0 °C 1015.2 hPa North 31 km/h 36 km/h 65% 0.00 mm 588.60 W/m2
11:34 30.0 °C 23.0 °C 1015.2 hPa North 27 km/h 28 km/h 65% 0.00 mm 498.96 W/m2
11:39 30.0 °C 23.0 °C 1015.2 hPa North 21 km/h 24 km/h 65% 0.00 mm 470.11 W/m2
11:44 30.0 °C 23.0 °C 1014.9 hPa NNE 24 km/h 28 km/h 65% 0.00 mm 499.81 W/m2
11:49 31.0 °C 23.0 °C 1014.9 hPa North 18 km/h 24 km/h 64% 0.00 mm 566.00 W/m2
11:54 31.0 °C 23.0 °C 1014.9 hPa NNE 15 km/h 16 km/h 63% 0.00 mm 418.04 W/m2
11:59 31.0 °C 22.0 °C 1014.9 hPa NE 25 km/h 32 km/h 61% 0.00 mm 533.45 W/m2
12:04 31.0 °C 22.0 °C 1014.9 hPa NNE 29 km/h 40 km/h 60% 0.00 mm 499.15 W/m2
12:09 31.0 °C 23.0 °C 1014.6 hPa NNE 27 km/h 40 km/h 64% 0.00 mm 537.57 W/m2
12:14 31.0 °C 23.0 °C 1014.6 hPa North 31 km/h 40 km/h 63% 0.00 mm 516.94 W/m2
12:19 31.0 °C 23.0 °C 1014.6 hPa North 28 km/h 40 km/h 64% 0.00 mm 530.52 W/m2
12:24 31.0 °C 23.0 °C 1014.2 hPa North 25 km/h 28 km/h 64% 0.00 mm 549.48 W/m2
12:29 31.0 °C 23.0 °C 1014.2 hPa North 20 km/h 28 km/h 63% 0.00 mm 521.29 W/m2
12:34 31.0 °C 23.0 °C 1014.2 hPa North 25 km/h 32 km/h 63% 0.00 mm 505.83 W/m2
12:39 30.0 °C 23.0 °C 1014.2 hPa North 24 km/h 36 km/h 64% 0.00 mm 498.98 W/m2
12:44 31.0 °C 23.0 °C 1013.9 hPa North 30 km/h 36 km/h 64% 0.00 mm 452.96 W/m2
12:49 31.0 °C 23.0 °C 1013.9 hPa NNE 24 km/h 36 km/h 63% 0.00 mm 455.84 W/m2
12:54 32.0 °C 23.0 °C 1013.9 hPa NNE 23 km/h 28 km/h 62% 0.00 mm 503.92 W/m2
12:59 31.0 °C 22.0 °C 1013.9 hPa NNE 24 km/h 32 km/h 61% 0.00 mm 512.29 W/m2
13:04 32.0 °C 23.0 °C 1013.9 hPa NNW 30 km/h 32 km/h 59% 0.00 mm 514.57 W/m2
13:09 32.0 °C 23.0 °C 1013.9 hPa NE 24 km/h 32 km/h 59% 0.00 mm 526.58 W/m2
13:14 32.0 °C 23.0 °C 1013.9 hPa NNE 17 km/h 32 km/h 58% 0.00 mm 513.73 W/m2
13:19 32.0 °C 23.0 °C 1013.6 hPa NNE 27 km/h 32 km/h 59% 0.00 mm 541.82 W/m2
13:24 31.0 °C 23.0 °C 1013.6 hPa NNE 24 km/h 32 km/h 60% 0.00 mm 542.43 W/m2
13:29 32.0 °C 23.0 °C 1013.6 hPa NNE 24 km/h 28 km/h 60% 0.00 mm 525.63 W/m2
13:34 32.0 °C 23.0 °C 1013.6 hPa NE 23 km/h 32 km/h 59% 0.00 mm 523.50 W/m2
13:39 32.0 °C 23.0 °C 1013.6 hPa NNE 34 km/h 40 km/h 60% 0.00 mm 487.36 W/m2
13:44 31.0 °C 23.0 °C 1013.6 hPa North 30 km/h 36 km/h 61% 0.00 mm 483.35 W/m2
13:49 31.0 °C 23.0 °C 1013.6 hPa NNE 33 km/h 36 km/h 61% 0.00 mm 542.51 W/m2
13:54 31.0 °C 22.0 °C 1013.6 hPa NNE 24 km/h 28 km/h 61% 0.00 mm 583.00 W/m2
13:59 31.0 °C 22.0 °C 1013.6 hPa NNE 22 km/h 24 km/h 60% 0.00 mm 439.23 W/m2
14:04 31.0 °C 22.0 °C 1013.2 hPa NNE 23 km/h 28 km/h 61% 0.00 mm 525.31 W/m2
14:09 31.0 °C 22.0 °C 1013.2 hPa NNE 27 km/h 36 km/h 60% 0.00 mm 218.59 W/m2
14:14 31.0 °C 22.0 °C 1013.2 hPa North 18 km/h 20 km/h 60% 0.00 mm 514.59 W/m2
14:19 31.0 °C 22.0 °C 1013.2 hPa NE 17 km/h 24 km/h 59% 0.00 mm 514.44 W/m2
14:24 31.0 °C 22.0 °C 1012.9 hPa North 25 km/h 28 km/h 60% 0.00 mm 480.78 W/m2
14:29 31.0 °C 22.0 °C 1012.9 hPa North 24 km/h 32 km/h 61% 0.00 mm 500.96 W/m2
14:34 32.0 °C 22.0 °C 1012.9 hPa NNE 36 km/h 40 km/h 60% 0.00 mm 483.79 W/m2
14:39 31.0 °C 22.0 °C 1012.9 hPa NE 28 km/h 36 km/h 60% 0.00 mm 488.83 W/m2
14:44 31.0 °C 22.0 °C 1012.9 hPa NE 26 km/h 32 km/h 59% 0.00 mm 557.51 W/m2
14:49 31.0 °C 22.0 °C 1012.9 hPa NNE 30 km/h 32 km/h 61% 0.00 mm 504.66 W/m2
14:54 31.0 °C 22.0 °C 1012.9 hPa NNE 25 km/h 32 km/h 61% 0.00 mm 514.25 W/m2
14:59 31.0 °C 22.0 °C 1012.9 hPa NNE 26 km/h 28 km/h 60% 0.00 mm 496.83 W/m2
15:04 31.0 °C 22.0 °C 1012.9 hPa NNE 21 km/h 28 km/h 61% 0.00 mm 528.22 W/m2
15:09 31.0 °C 22.0 °C 1012.9 hPa NNE 25 km/h 32 km/h 62% 0.00 mm 487.46 W/m2
15:14 31.0 °C 22.0 °C 1012.9 hPa NNE 31 km/h 32 km/h 62% 0.00 mm 362.28 W/m2
15:19 30.0 °C 22.0 °C 1012.9 hPa North 26 km/h 32 km/h 62% 0.00 mm 440.26 W/m2
15:24 31.0 °C 22.0 °C 1012.9 hPa NE 24 km/h 36 km/h 62% 0.00 mm 434.34 W/m2
15:29 31.0 °C 22.0 °C 1012.9 hPa NNE 21 km/h 24 km/h 60% 0.00 mm 435.44 W/m2
15:34 30.0 °C 22.0 °C 1012.9 hPa NNE 32 km/h 44 km/h 61% 0.00 mm 425.36 W/m2
15:39 31.0 °C 22.0 °C 1012.9 hPa NNE 25 km/h 44 km/h 61% 0.00 mm 418.26 W/m2
15:44 31.0 °C 22.0 °C 1012.9 hPa NNE 21 km/h 24 km/h 61% 0.00 mm 407.84 W/m2
15:49 30.0 °C 22.0 °C 1012.9 hPa NNE 33 km/h 40 km/h 62% 0.00 mm 403.70 W/m2
15:54 30.0 °C 22.0 °C 1012.9 hPa NNE 29 km/h 36 km/h 62% 0.00 mm 370.44 W/m2
15:59 30.0 °C 22.0 °C 1012.9 hPa NNE 31 km/h 40 km/h 61% 0.00 mm 375.42 W/m2
16:04 30.0 °C 22.0 °C 1013.2 hPa NNE 22 km/h 28 km/h 62% 0.00 mm 374.25 W/m2
16:09 30.0 °C 22.0 °C 1013.2 hPa NNE 28 km/h 32 km/h 61% 0.00 mm 346.84 W/m2
16:14 30.0 °C 21.0 °C 1013.2 hPa NNE 23 km/h 32 km/h 61% 0.00 mm 339.94 W/m2
16:19 30.0 °C 22.0 °C 1013.2 hPa NNE 26 km/h 32 km/h 62% 0.00 mm 339.31 W/m2
16:24 30.0 °C 22.0 °C 1013.2 hPa NNE 20 km/h 24 km/h 61% 0.00 mm 358.64 W/m2
16:29 30.0 °C 22.0 °C 1013.2 hPa NNE 27 km/h 40 km/h 62% 0.00 mm 149.83 W/m2
16:34 30.0 °C 22.0 °C 1013.6 hPa NNE 22 km/h 28 km/h 62% 0.00 mm 116.80 W/m2
16:39 30.0 °C 22.0 °C 1013.6 hPa NNE 27 km/h 32 km/h 63% 0.00 mm 88.54 W/m2
16:44 30.0 °C 22.0 °C 1013.6 hPa NNE 24 km/h 28 km/h 64% 0.00 mm 254.80 W/m2
16:49 29.0 °C 22.0 °C 1013.6 hPa North 23 km/h 28 km/h 63% 0.00 mm 307.28 W/m2
16:54 30.0 °C 21.0 °C 1013.6 hPa NE 20 km/h 32 km/h 62% 0.00 mm 270.80 W/m2
16:59 29.0 °C 21.0 °C 1013.6 hPa NNE 21 km/h 32 km/h 64% 0.00 mm 172.71 W/m2
17:04 29.0 °C 22.0 °C 1013.6 hPa North 24 km/h 28 km/h 66% 0.00 mm 128.88 W/m2
17:09 29.0 °C 22.0 °C 1013.9 hPa North 21 km/h 28 km/h 66% 0.00 mm 61.27 W/m2
17:14 29.0 °C 22.0 °C 1013.9 hPa North 21 km/h 28 km/h 66% 0.00 mm 49.73 W/m2
17:19 29.0 °C 22.0 °C 1013.9 hPa North 18 km/h 24 km/h 66% 0.00 mm 54.89 W/m2
17:24 29.0 °C 22.0 °C 1013.9 hPa NNE 21 km/h 28 km/h 67% 0.00 mm 51.19 W/m2
17:29 28.0 °C 22.0 °C 1013.9 hPa North 14 km/h 24 km/h 67% 0.00 mm 35.55 W/m2
17:34 28.0 °C 21.0 °C 1014.2 hPa NNE 21 km/h 24 km/h 67% 0.00 mm 30.29 W/m2
17:39 28.0 °C 21.0 °C 1014.2 hPa NNE 18 km/h 20 km/h 67% 0.00 mm 25.77 W/m2
17:44 28.0 °C 21.0 °C 1014.2 hPa North 23 km/h 24 km/h 67% 0.00 mm 21.13 W/m2
17:49 28.0 °C 21.0 °C 1014.2 hPa NNE 18 km/h 24 km/h 68% 0.00 mm 16.79 W/m2
17:54 28.0 °C 21.0 °C 1014.2 hPa North 15 km/h 20 km/h 68% 0.00 mm 11.08 W/m2
17:59 28.0 °C 21.0 °C 1014.2 hPa NNE 17 km/h 20 km/h 69% 0.00 mm 6.16 W/m2
18:04 28.0 °C 21.0 °C 1014.2 hPa North 15 km/h 20 km/h 69% 0.00 mm 2.86 W/m2
18:09 28.0 °C 21.0 °C 1014.2 hPa NNE 19 km/h 24 km/h 69% 0.00 mm 0.10 W/m2
18:14 27.0 °C 21.0 °C 1014.2 hPa NNE 9 km/h 16 km/h 69% 0.00 mm 0.00 W/m2
18:19 27.0 °C 21.0 °C 1014.2 hPa North 10 km/h 16 km/h 70% 0.00 mm 0.00 W/m2
18:24 27.0 °C 21.0 °C 1014.2 hPa North 18 km/h 20 km/h 70% 0.00 mm 0.00 W/m2
18:29 27.0 °C 21.0 °C 1014.2 hPa North 14 km/h 20 km/h 70% 0.00 mm 0.00 W/m2
18:34 27.0 °C 21.0 °C 1014.2 hPa NNE 14 km/h 16 km/h 70% 0.00 mm 0.00 W/m2
18:39 27.0 °C 21.0 °C 1014.6 hPa NNE 16 km/h 20 km/h 70% 0.00 mm 0.00 W/m2
18:44 27.0 °C 21.0 °C 1014.6 hPa NNE 18 km/h 28 km/h 70% 0.00 mm 0.00 W/m2
18:49 27.0 °C 21.0 °C 1014.6 hPa NNW 17 km/h 20 km/h 68% 0.00 mm 0.00 W/m2
18:54 27.0 °C 21.0 °C 1014.6 hPa NE 8 km/h 20 km/h 68% 0.00 mm 0.00 W/m2
18:59 27.0 °C 21.0 °C 1014.6 hPa North 10 km/h 12 km/h 69% 0.00 mm 0.00 W/m2
19:04 27.0 °C 21.0 °C 1014.9 hPa NNE 13 km/h 20 km/h 70% 0.00 mm 0.00 W/m2
19:09 27.0 °C 21.0 °C 1014.9 hPa NNE 9 km/h 20 km/h 71% 0.00 mm 0.00 W/m2
19:14 27.0 °C 21.0 °C 1015.2 hPa NNE 7 km/h 12 km/h 71% 0.00 mm 0.00 W/m2
19:19 27.0 °C 21.0 °C 1015.2 hPa NNE 14 km/h 16 km/h 71% 0.00 mm 0.00 W/m2
19:24 27.0 °C 21.0 °C 1015.2 hPa North 13 km/h 16 km/h 72% 0.00 mm 0.00 W/m2
19:29 27.0 °C 21.0 °C 1015.2 hPa North 16 km/h 20 km/h 72% 0.00 mm 0.00 W/m2
19:34 26.0 °C 21.0 °C 1015.2 hPa North 13 km/h 16 km/h 72% 0.00 mm 0.00 W/m2
19:39 26.0 °C 21.0 °C 1015.2 hPa NNE 14 km/h 16 km/h 72% 0.00 mm 0.00 W/m2
19:44 26.0 °C 21.0 °C 1015.2 hPa NNE 10 km/h 12 km/h 72% 0.00 mm 0.00 W/m2
19:49 26.0 °C 21.0 °C 1015.6 hPa North 15 km/h 16 km/h 72% 0.00 mm 0.00 W/m2
19:54 26.0 °C 21.0 °C 1015.6 hPa North 12 km/h 16 km/h 73% 0.00 mm 0.00 W/m2
19:59 26.0 °C 21.0 °C 1015.6 hPa North 14 km/h 16 km/h 73% 0.00 mm 0.00 W/m2
20:04 26.0 °C 21.0 °C 1015.6 hPa North 13 km/h 16 km/h 73% 0.00 mm 0.00 W/m2
20:09 26.0 °C 21.0 °C 1015.6 hPa NNW 9 km/h 12 km/h 72% 0.00 mm 0.00 W/m2
20:14 26.0 °C 21.0 °C 1015.6 hPa North 5 km/h 8 km/h 72% 0.00 mm 0.00 W/m2
20:19 26.0 °C 21.0 °C 1015.9 hPa North 5 km/h 12 km/h 72% 0.00 mm 0.00 W/m2
20:24 26.0 °C 21.0 °C 1015.9 hPa North 14 km/h 16 km/h 73% 0.00 mm 0.00 W/m2
20:29 26.0 °C 21.0 °C 1015.9 hPa North 12 km/h 12 km/h 73% 0.00 mm 0.00 W/m2
20:34 26.0 °C 21.0 °C 1015.9 hPa North 14 km/h 16 km/h 73% 0.00 mm 0.00 W/m2
20:39 26.0 °C 21.0 °C 1015.9 hPa NNE 12 km/h 16 km/h 73% 0.00 mm 0.00 W/m2
20:44 26.0 °C 21.0 °C 1015.9 hPa NNE 19 km/h 24 km/h 72% 0.00 mm 0.00 W/m2
20:49 26.0 °C 21.0 °C 1016.3 hPa North 18 km/h 24 km/h 72% 0.00 mm 0.00 W/m2
20:54 26.0 °C 21.0 °C 1016.3 hPa NNE 17 km/h 24 km/h 72% 0.00 mm 0.00 W/m2
20:59 26.0 °C 21.0 °C 1016.3 hPa NNE 19 km/h 24 km/h 71% 0.00 mm 0.00 W/m2
21:04 26.0 °C 21.0 °C 1016.3 hPa NNE 18 km/h 20 km/h 71% 0.00 mm 0.00 W/m2
21:09 26.0 °C 21.0 °C 1016.3 hPa North 11 km/h 16 km/h 72% 0.00 mm 0.00 W/m2
21:14 26.0 °C 21.0 °C 1016.3 hPa North 12 km/h 16 km/h 73% 0.00 mm 0.00 W/m2
21:19 26.0 °C 21.0 °C 1016.3 hPa North 12 km/h 16 km/h 73% 0.00 mm 0.00 W/m2
21:24 26.0 °C 21.0 °C 1016.3 hPa NNE 9 km/h 12 km/h 73% 0.00 mm 0.00 W/m2
21:29 26.0 °C 21.0 °C 1016.3 hPa North 10 km/h 12 km/h 72% 0.00 mm 0.00 W/m2
21:34 26.0 °C 21.0 °C 1016.3 hPa NNE 11 km/h 16 km/h 72% 0.00 mm 0.00 W/m2
21:39 26.0 °C 21.0 °C 1016.3 hPa NNE 10 km/h 12 km/h 72% 0.00 mm 0.00 W/m2
21:44 26.0 °C 20.0 °C 1016.6 hPa NE 12 km/h 16 km/h 71% 0.00 mm 0.00 W/m2
21:49 26.0 °C 21.0 °C 1016.6 hPa NE 11 km/h 16 km/h 71% 0.00 mm 0.00 W/m2
21:54 26.0 °C 21.0 °C 1016.6 hPa NNE 10 km/h 12 km/h 72% 0.00 mm 0.00 W/m2
21:59 26.0 °C 21.0 °C 1016.6 hPa NNE 11 km/h 12 km/h 72% 0.00 mm 0.00 W/m2
22:04 26.0 °C 20.0 °C 1016.6 hPa NNW 14 km/h 16 km/h 72% 0.00 mm 0.00 W/m2
22:09 26.0 °C 21.0 °C 1016.6 hPa North 15 km/h 16 km/h 73% 0.00 mm 0.00 W/m2
22:14 26.0 °C 21.0 °C 1016.6 hPa NNE 10 km/h 12 km/h 73% 0.00 mm 0.00 W/m2
22:19 26.0 °C 20.0 °C 1016.6 hPa North 9 km/h 12 km/h 72% 0.00 mm 0.00 W/m2
22:24 26.0 °C 20.0 °C 1016.6 hPa NNE 6 km/h 8 km/h 72% 0.00 mm 0.00 W/m2
22:29 26.0 °C 20.0 °C 1016.6 hPa North 10 km/h 12 km/h 72% 0.00 mm 0.00 W/m2
22:34 26.0 °C 20.0 °C 1016.6 hPa North 10 km/h 12 km/h 72% 0.00 mm 0.00 W/m2
22:39 26.0 °C 20.0 °C 1016.6 hPa NNE 13 km/h 16 km/h 72% 0.00 mm 0.00 W/m2
22:44 26.0 °C 20.0 °C 1016.6 hPa North 10 km/h 12 km/h 72% 0.00 mm 0.00 W/m2
22:49 26.0 °C 20.0 °C 1016.6 hPa North 17 km/h 20 km/h 73% 0.00 mm 0.00 W/m2
22:54 26.0 °C 20.0 °C 1016.6 hPa NNE 14 km/h 20 km/h 73% 0.00 mm 0.00 W/m2
22:59 25.0 °C 20.0 °C 1016.3 hPa North 12 km/h 16 km/h 73% 0.00 mm 0.00 W/m2
23:04 26.0 °C 20.0 °C 1016.3 hPa NNE 15 km/h 16 km/h 73% 0.00 mm 0.00 W/m2
23:09 26.0 °C 20.0 °C 1016.3 hPa North 17 km/h 20 km/h 73% 0.00 mm 0.00 W/m2
23:14 26.0 °C 20.0 °C 1016.3 hPa NNE 17 km/h 20 km/h 73% 0.00 mm 0.00 W/m2
23:19 26.0 °C 20.0 °C 1016.6 hPa North 13 km/h 16 km/h 73% 0.00 mm 0.00 W/m2
23:24 25.0 °C 20.0 °C 1016.6 hPa NNE 10 km/h 12 km/h 73% 0.00 mm 0.00 W/m2
23:29 25.0 °C 20.0 °C 1016.6 hPa North 9 km/h 12 km/h 73% 0.00 mm 0.00 W/m2
23:34 25.0 °C 20.0 °C 1016.6 hPa North 24 km/h 28 km/h 73% 0.00 mm 0.00 W/m2
23:39 26.0 °C 20.0 °C 1016.6 hPa NNE 20 km/h 28 km/h 73% 0.00 mm 0.00 W/m2
23:44 25.0 °C 20.0 °C 1016.3 hPa North 14 km/h 16 km/h 74% 0.00 mm 0.00 W/m2
23:49 25.0 °C 20.0 °C 1016.3 hPa North 12 km/h 16 km/h 75% 0.00 mm 0.00 W/m2
23:54 25.0 °C 21.0 °C 1016.6 hPa North 14 km/h 16 km/h 75% 0.00 mm 0.00 W/m2
23:59 25.0 °C 21.0 °C 1016.6 hPa NNE 13 km/h 16 km/h 75% 0.00 mm 0.00 W/m2
PIMOHWEATHER Philippines
Compliments of Weather Underground - 2 mb